createdAt,value
2017-04-28T20:45:05.474Z,23.94
2017-04-28T20:50:46.821Z,18.88
2017-04-28T20:53:40.178Z,17.03
2017-04-28T20:56:32.682Z,15.78
2017-04-28T20:59:25.302Z,14.88
2017-04-28T21:02:18.428Z,14.14
2017-04-28T21:05:11.883Z,13.64
2017-04-28T21:08:05.414Z,13.31
2017-04-28T21:10:58.617Z,13.07
2017-04-28T21:13:51.711Z,12.87
2017-04-28T21:16:45.091Z,12.72
2017-04-28T21:19:38.459Z,12.60
2017-04-28T21:22:31.872Z,12.52
2017-04-28T21:25:25.385Z,12.43
2017-04-28T21:28:18.865Z,12.36
2017-04-28T21:31:12.368Z,12.31
2017-04-28T21:34:05.859Z,12.26
2017-04-28T21:36:59.318Z,12.21
2017-04-28T21:39:53.233Z,12.20
2017-04-28T21:42:46.706Z,12.16
2017-04-28T21:45:39.967Z,12.14
2017-04-28T21:48:33.431Z,12.12
2017-04-28T21:51:26.897Z,12.09
2017-04-28T21:54:20.497Z,12.07
2017-04-28T21:57:14.028Z,12.05
2017-04-28T22:00:08.214Z,12.07
2017-04-28T22:03:02.272Z,12.08
2017-04-28T22:08:50.691Z,12.07
2017-04-28T22:11:44.651Z,12.06
2017-04-28T22:14:38.718Z,12.04
2017-04-28T22:17:32.642Z,12.02
2017-04-28T22:20:26.717Z,11.98
2017-04-28T22:23:20.680Z,11.93
2017-04-28T22:26:14.669Z,11.87
2017-04-28T22:29:08.590Z,11.82
2017-04-28T22:32:02.506Z,11.77
2017-04-28T22:34:56.466Z,11.75
2017-04-28T22:37:50.428Z,11.71
2017-04-28T22:40:44.417Z,11.70
2017-04-28T22:43:38.409Z,11.69
2017-04-28T22:46:32.303Z,11.60
2017-04-28T22:49:26.178Z,11.54
2017-04-28T22:52:20.122Z,11.51
2017-04-28T22:55:13.992Z,11.45
2017-04-28T22:58:07.868Z,11.41
2017-04-28T23:01:01.818Z,11.32
2017-04-28T23:03:55.753Z,11.24
2017-04-28T23:06:49.564Z,11.20
2017-04-28T23:09:43.468Z,11.10
2017-04-28T23:12:37.227Z,11.01
2017-04-28T23:15:31.077Z,10.93
2017-04-28T23:18:24.925Z,10.84
2017-04-28T23:21:18.644Z,10.78
2017-04-28T23:24:12.353Z,10.76
2017-04-28T23:27:06.161Z,10.76
2017-04-28T23:29:59.974Z,10.72
2017-04-28T23:32:53.815Z,10.66
2017-04-28T23:35:47.438Z,10.64
2017-04-28T23:38:41.206Z,10.61
2017-04-28T23:41:34.992Z,10.58
2017-04-28T23:44:28.801Z,10.58
2017-04-28T23:47:22.512Z,10.61
2017-04-28T23:50:16.219Z,10.66
2017-04-28T23:53:09.914Z,10.68
2017-04-28T23:56:03.566Z,10.73
2017-04-28T23:58:57.142Z,10.77
